createdAt,value
2023-05-15T00:02:10.664Z,97.00
2023-05-15T00:04:37.467Z,96.90
2023-05-15T00:07:04.283Z,97.00
2023-05-15T00:09:31.015Z,97.00
2023-05-15T00:11:57.748Z,97.00
2023-05-15T00:14:24.715Z,97.10
2023-05-15T00:16:51.466Z,97.10
2023-05-15T00:19:18.237Z,97.10
2023-05-15T00:21:44.997Z,97.10
2023-05-15T00:24:11.723Z,97.10
2023-05-15T00:26:38.462Z,97.10
2023-05-15T00:29:05.141Z,97.20
2023-05-15T00:31:33.484Z,97.20
2023-05-15T00:34:00.285Z,97.20
2023-05-15T00:36:27.042Z,97.30
2023-05-15T00:38:53.937Z,97.20
2023-05-15T00:41:21.674Z,97.30
2023-05-15T00:43:49.464Z,97.30
2023-05-15T00:46:16.198Z,97.30
2023-05-15T00:48:43.175Z,97.30
2023-05-15T00:51:09.960Z,97.30
2023-05-15T00:53:37.702Z,97.30
2023-05-15T00:56:04.819Z,97.60
2023-05-15T00:58:31.548Z,97.20
2023-05-15T01:00:58.335Z,97.10
2023-05-15T01:03:25.265Z,97.20
2023-05-15T01:05:52.051Z,97.20
2023-05-15T01:08:24.023Z,97.20
2023-05-15T01:10:50.694Z,97.30
2023-05-15T01:13:17.416Z,97.30
2023-05-15T01:15:44.075Z,97.30
2023-05-15T01:18:10.909Z,97.30
2023-05-15T01:21:07.463Z,97.70
2023-05-15T01:23:52.726Z,97.30
2023-05-15T01:26:40.750Z,97.30
2023-05-15T01:29:27.585Z,97.30
2023-05-15T01:31:58.716Z,97.40
2023-05-15T01:34:54.944Z,97.50
2023-05-15T01:37:24.129Z,97.40
2023-05-15T01:39:53.818Z,97.40
2023-05-15T01:42:20.664Z,97.50
2023-05-15T01:44:52.118Z,97.60
2023-05-15T01:47:21.621Z,97.60
2023-05-15T01:49:49.195Z,97.60
2023-05-15T01:52:29.294Z,97.90
2023-05-15T01:54:56.061Z,97.40
2023-05-15T01:57:22.715Z,97.50
2023-05-15T01:59:49.419Z,97.60
2023-05-15T02:02:16.144Z,97.70
2023-05-15T02:04:43.526Z,97.70
2023-05-15T02:07:10.305Z,97.80
2023-05-15T02:09:36.993Z,97.80
2023-05-15T02:12:04.033Z,97.90
2023-05-15T02:14:30.991Z,97.90
2023-05-15T02:16:57.758Z,97.90
2023-05-15T02:19:24.800Z,97.90
2023-05-15T02:21:51.470Z,97.80
2023-05-15T02:24:18.165Z,97.80
2023-05-15T02:26:59.901Z,97.90
2023-05-15T02:29:55.261Z,97.80
2023-05-15T02:32:33.873Z,97.70
2023-05-15T02:35:22.383Z,97.70
2023-05-15T02:37:51.363Z,97.70
2023-05-15T02:40:18.078Z,98.00
2023-05-15T02:42:45.245Z,97.60
2023-05-15T02:45:11.987Z,97.70
2023-05-15T02:47:38.774Z,97.60
2023-05-15T02:50:06.188Z,97.60
2023-05-15T02:52:34.733Z,97.70
2023-05-15T02:55:01.503Z,97.80
2023-05-15T02:57:28.209Z,97.80
2023-05-15T02:59:55.164Z,97.90
2023-05-15T03:02:21.841Z,97.90
2023-05-15T03:04:48.570Z,97.90
2023-05-15T03:07:15.309Z,97.90
2023-05-15T03:09:42.045Z,98.00
2023-05-15T03:12:09.554Z,97.90
2023-05-15T03:14:36.341Z,97.90
2023-05-15T03:17:03.422Z,98.10
2023-05-15T03:19:31.215Z,98.00
2023-05-15T03:21:57.966Z,98.00
2023-05-15T03:24:24.648Z,98.00
2023-05-15T03:26:51.345Z,98.00
2023-05-15T03:29:18.017Z,97.90
2023-05-15T03:31:44.769Z,97.80
2023-05-15T03:34:11.827Z,97.70
2023-05-15T03:36:38.526Z,97.60
2023-05-15T03:39:05.356Z,97.70
2023-05-15T03:41:32.059Z,97.70
2023-05-15T03:43:58.771Z,97.70
2023-05-15T03:46:25.575Z,97.60
2023-05-15T03:48:54.495Z,97.50
2023-05-15T03:51:21.389Z,97.60
2023-05-15T03:53:48.049Z,97.60
2023-05-15T03:56:14.745Z,97.70
2023-05-15T03:58:41.405Z,97.80
2023-05-15T04:01:08.127Z,97.80
2023-05-15T04:03:34.929Z,97.80
2023-05-15T04:06:01.674Z,97.80
2023-05-15T04:08:28.342Z,97.80
2023-05-15T04:10:55.031Z,97.80
2023-05-15T04:13:21.688Z,97.80
2023-05-15T04:15:48.762Z,97.70
2023-05-15T04:18:15.488Z,97.80
2023-05-15T04:20:42.468Z,97.80
2023-05-15T04:23:09.476Z,97.80
2023-05-15T04:25:36.686Z,97.80
2023-05-15T04:28:03.404Z,97.70
2023-05-15T04:30:30.185Z,97.60
2023-05-15T04:32:57.038Z,97.50
2023-05-15T04:35:23.990Z,97.50
2023-05-15T04:37:50.894Z,97.50
2023-05-15T04:40:17.990Z,97.50
2023-05-15T04:42:44.768Z,97.50
2023-05-15T04:45:11.536Z,97.50
2023-05-15T04:47:38.481Z,97.40
2023-05-15T04:50:06.546Z,97.50
2023-05-15T04:52:33.360Z,97.50
2023-05-15T04:55:00.042Z,97.60
2023-05-15T04:57:26.849Z,97.70
2023-05-15T04:59:53.603Z,97.70
2023-05-15T05:02:22.377Z,97.70
2023-05-15T05:04:49.157Z,97.70
2023-05-15T05:07:15.823Z,97.80
2023-05-15T05:09:42.518Z,97.80
2023-05-15T05:12:09.523Z,97.80
2023-05-15T05:14:36.515Z,97.80
2023-05-15T05:17:03.476Z,97.70
2023-05-15T05:19:30.272Z,97.80
2023-05-15T05:21:58.486Z,97.70
2023-05-15T05:24:25.285Z,97.70
2023-05-15T05:26:51.956Z,97.70
2023-05-15T05:29:18.626Z,97.50
2023-05-15T05:31:47.064Z,97.50
2023-05-15T05:34:13.896Z,97.50
2023-05-15T05:36:40.747Z,97.50
2023-05-15T05:39:07.518Z,97.50
2023-05-15T05:41:34.716Z,97.50
2023-05-15T05:44:01.459Z,97.50
2023-05-15T05:46:28.479Z,97.40
2023-05-15T05:48:55.410Z,97.50
2023-05-15T05:51:22.127Z,97.50
2023-05-15T05:53:48.825Z,98.00
2023-05-15T05:56:15.500Z,97.70
2023-05-15T05:58:42.204Z,97.80
2023-05-15T06:01:09.097Z,97.70
2023-05-15T06:03:35.831Z,97.80
2023-05-15T06:06:02.841Z,97.80
2023-05-15T06:08:29.775Z,97.80
2023-05-15T06:10:56.495Z,97.90
2023-05-15T06:13:23.554Z,97.90
2023-05-15T06:15:51.130Z,97.80
2023-05-15T06:18:17.789Z,98.30
2023-05-15T06:20:44.532Z,98.00
2023-05-15T06:23:11.270Z,98.00
2023-05-15T06:25:38.075Z,98.40
2023-05-15T06:28:05.048Z,98.00
2023-05-15T06:30:31.804Z,97.90
2023-05-15T06:32:58.595Z,97.80
2023-05-15T06:35:25.502Z,97.80
2023-05-15T06:37:53.102Z,97.70
2023-05-15T06:40:20.824Z,97.70
2023-05-15T06:42:47.718Z,97.70
2023-05-15T06:45:14.432Z,97.70
2023-05-15T06:47:41.202Z,97.60
2023-05-15T06:50:08.312Z,97.60
2023-05-15T06:52:35.069Z,97.70
2023-05-15T06:55:01.942Z,97.80
2023-05-15T06:57:28.744Z,98.00
2023-05-15T06:59:55.479Z,98.00
2023-05-15T07:02:22.180Z,98.10
2023-05-15T07:04:48.955Z,98.20
2023-05-15T07:07:15.652Z,98.10
2023-05-15T07:09:42.469Z,98.00
2023-05-15T07:12:09.453Z,98.00
2023-05-15T07:14:36.214Z,97.80
2023-05-15T07:17:02.915Z,97.80
2023-05-15T07:19:29.814Z,97.80
2023-05-15T07:21:56.576Z,97.80
2023-05-15T07:24:23.297Z,97.80
2023-05-15T07:26:58.141Z,97.80
2023-05-15T07:29:26.120Z,97.90
2023-05-15T07:31:53.478Z,97.60
2023-05-15T07:34:20.682Z,97.70
2023-05-15T07:36:47.495Z,97.70
2023-05-15T07:39:14.246Z,97.70
2023-05-15T07:41:41.017Z,97.60
2023-05-15T07:44:07.801Z,97.60
2023-05-15T07:46:35.080Z,97.60
2023-05-15T07:49:02.375Z,97.60
2023-05-15T07:51:29.305Z,97.60
2023-05-15T07:53:56.033Z,97.60
2023-05-15T07:56:23.263Z,97.70
2023-05-15T07:58:50.361Z,97.90
2023-05-15T08:01:17.139Z,97.70
2023-05-15T08:03:44.124Z,97.60
2023-05-15T08:06:10.981Z,97.60
2023-05-15T08:08:37.671Z,97.60
2023-05-15T08:11:04.380Z,97.40
2023-05-15T08:13:31.109Z,97.40
2023-05-15T08:15:57.801Z,97.30
2023-05-15T08:18:24.702Z,97.40
2023-05-15T08:20:52.307Z,97.30
2023-05-15T08:23:19.325Z,97.20
2023-05-15T08:25:46.159Z,97.20
2023-05-15T08:28:12.991Z,97.00
2023-05-15T08:30:39.820Z,96.90
2023-05-15T08:33:06.557Z,96.70
2023-05-15T08:35:33.363Z,97.00
2023-05-15T08:38:00.515Z,96.90
2023-05-15T08:43:01.086Z,96.90
2023-05-15T08:45:28.001Z,97.20
2023-05-15T08:47:54.811Z,97.60
2023-05-15T08:50:21.765Z,97.70
2023-05-15T08:52:48.700Z,97.70
2023-05-15T08:55:15.751Z,98.00
2023-05-15T08:57:43.879Z,97.70
2023-05-15T09:00:11.917Z,97.50
2023-05-15T09:02:39.196Z,97.40
2023-05-15T09:05:06.489Z,97.40
2023-05-15T09:07:33.629Z,97.30
2023-05-15T09:10:01.681Z,97.20
2023-05-15T09:12:28.646Z,97.40
2023-05-15T09:15:18.171Z,97.40
2023-05-15T09:17:45.389Z,97.10
2023-05-15T09:20:34.919Z,97.50
2023-05-15T09:23:04.587Z,97.60
2023-05-15T09:25:38.914Z,97.20
2023-05-15T09:28:07.048Z,97.10
2023-05-15T09:30:34.798Z,97.10
2023-05-15T09:33:03.708Z,96.90
2023-05-15T09:35:37.836Z,96.70
2023-05-15T09:38:11.757Z,96.80
2023-05-15T09:40:38.962Z,96.70
2023-05-15T09:43:06.010Z,96.60
2023-05-15T09:45:32.868Z,97.00
2023-05-15T09:48:00.106Z,96.60
2023-05-15T09:50:33.753Z,96.90
2023-05-15T09:53:00.994Z,96.60
2023-05-15T09:55:28.198Z,96.40
2023-05-15T09:58:08.412Z,96.50
2023-05-15T10:00:35.690Z,96.50
2023-05-15T10:03:03.613Z,96.40
2023-05-15T10:05:42.598Z,96.40
2023-05-15T10:08:11.310Z,96.40
2023-05-15T10:10:38.443Z,96.60
2023-05-15T10:13:06.061Z,96.60
2023-05-15T10:15:33.267Z,96.60
2023-05-15T10:18:00.991Z,96.70
2023-05-15T10:20:28.142Z,96.80
2023-05-15T10:22:56.128Z,96.80
2023-05-15T10:25:42.382Z,96.70
2023-05-15T10:28:10.267Z,96.60
2023-05-15T10:30:37.417Z,95.80
2023-05-15T10:33:07.710Z,95.50
2023-05-15T10:35:35.186Z,95.00
2023-05-15T10:38:04.350Z,95.00
2023-05-15T10:40:31.125Z,94.50
2023-05-15T10:42:58.006Z,94.10
2023-05-15T10:45:24.851Z,93.10
2023-05-15T10:47:52.678Z,92.90
2023-05-15T10:50:19.532Z,91.80
2023-05-15T10:52:46.336Z,92.00
2023-05-15T10:55:16.971Z,92.30
2023-05-15T10:57:47.525Z,92.90
2023-05-15T11:00:24.055Z,92.10
2023-05-15T11:02:53.960Z,92.20
2023-05-15T11:05:20.796Z,92.50
2023-05-15T11:08:15.230Z,92.50
2023-05-15T11:10:42.143Z,92.70
2023-05-15T11:13:08.887Z,92.80
2023-05-15T11:15:42.756Z,92.80
2023-05-15T11:18:09.797Z,93.10
2023-05-15T11:21:03.807Z,93.20
2023-05-15T11:23:38.383Z,92.90
2023-05-15T11:26:05.474Z,93.00
2023-05-15T11:28:32.154Z,93.20
2023-05-15T11:31:06.127Z,93.10
2023-05-15T11:33:32.835Z,93.10
2023-05-15T11:36:00.171Z,92.80
2023-05-15T11:38:29.932Z,92.80
2023-05-15T11:40:59.036Z,92.40
2023-05-15T11:43:27.161Z,92.30
2023-05-15T11:46:03.234Z,92.30
2023-05-15T11:48:37.601Z,92.50
2023-05-15T11:51:05.565Z,92.40
2023-05-15T11:53:32.924Z,92.10
2023-05-15T11:55:59.788Z,91.90
2023-05-15T11:58:26.619Z,91.60
2023-05-15T12:00:53.762Z,91.60
2023-05-15T12:03:29.941Z,91.90
2023-05-15T12:06:00.143Z,92.10
2023-05-15T12:08:39.175Z,92.40
2023-05-15T12:11:06.024Z,92.80
2023-05-15T12:13:33.033Z,92.80
2023-05-15T12:16:00.590Z,92.80
2023-05-15T12:18:27.385Z,92.90
2023-05-15T12:20:54.381Z,93.20
2023-05-15T12:23:22.223Z,93.00
2023-05-15T12:25:49.651Z,93.30
2023-05-15T12:28:17.362Z,93.20
2023-05-15T12:30:44.250Z,93.00
2023-05-15T12:33:11.124Z,92.90
2023-05-15T12:35:42.595Z,93.00
2023-05-15T12:38:09.449Z,93.00
2023-05-15T12:40:36.993Z,93.00
2023-05-15T12:43:07.462Z,92.80
2023-05-15T12:45:36.314Z,92.60
2023-05-15T12:48:03.892Z,92.70
2023-05-15T12:50:32.885Z,92.70
2023-05-15T12:53:04.051Z,92.70
2023-05-15T12:55:32.479Z,93.20
2023-05-15T12:58:06.366Z,92.90
2023-05-15T13:00:34.578Z,93.10
2023-05-15T13:03:01.806Z,92.20
2023-05-15T13:05:31.117Z,91.80
2023-05-15T13:08:02.707Z,90.90
2023-05-15T13:10:31.906Z,83.40
2023-05-15T13:12:58.668Z,86.90
2023-05-15T13:15:35.382Z,87.00
2023-05-15T13:18:06.364Z,87.50
2023-05-15T13:20:34.662Z,88.20
2023-05-15T13:23:01.707Z,87.60
2023-05-15T13:25:30.650Z,86.60
2023-05-15T13:27:59.474Z,85.80
2023-05-15T13:30:26.405Z,84.80
2023-05-15T13:32:55.490Z,83.60
2023-05-15T13:35:22.557Z,83.30
2023-05-15T13:37:49.693Z,79.20
2023-05-15T13:40:16.503Z,77.30
2023-05-15T13:42:43.463Z,78.00
2023-05-15T13:45:11.883Z,78.20
2023-05-15T13:47:39.569Z,77.80
2023-05-15T13:50:11.062Z,76.60
2023-05-15T13:52:37.946Z,75.70
2023-05-15T13:55:05.136Z,76.60
2023-05-15T13:57:32.277Z,77.20
2023-05-15T13:59:59.105Z,78.10
2023-05-15T14:02:29.284Z,71.50
2023-05-15T14:04:56.075Z,69.40
2023-05-15T14:07:23.073Z,69.80
2023-05-15T14:09:50.659Z,70.50
2023-05-15T14:12:17.627Z,69.70
2023-05-15T14:14:47.406Z,70.40
2023-05-15T14:17:15.035Z,70.40
2023-05-15T14:19:41.810Z,70.60
2023-05-15T14:22:08.822Z,70.60
2023-05-15T14:24:35.628Z,69.50
2023-05-15T14:27:02.356Z,69.40
2023-05-15T14:29:29.549Z,69.90
2023-05-15T14:31:56.293Z,69.60
2023-05-15T14:34:23.539Z,70.70
2023-05-15T14:36:50.409Z,69.80
2023-05-15T14:39:17.292Z,70.40
2023-05-15T14:41:44.567Z,71.60
2023-05-15T14:44:11.289Z,72.30
2023-05-15T14:46:38.392Z,72.80
2023-05-15T14:49:05.317Z,73.60
2023-05-15T14:51:32.118Z,72.80
2023-05-15T14:53:58.840Z,73.50
2023-05-15T14:56:25.932Z,72.60
2023-05-15T14:58:53.784Z,72.50
2023-05-15T15:01:20.756Z,72.10
2023-05-15T15:03:48.129Z,71.90
2023-05-15T15:06:15.056Z,71.30
2023-05-15T15:08:41.814Z,71.00
2023-05-15T15:11:08.791Z,68.70
2023-05-15T15:13:35.525Z,68.60
2023-05-15T15:16:02.307Z,68.30
2023-05-15T15:18:29.085Z,68.50
2023-05-15T15:20:55.801Z,68.90
2023-05-15T15:23:22.788Z,69.80
2023-05-15T15:25:49.545Z,70.60
2023-05-15T15:28:16.228Z,72.40
2023-05-15T15:30:42.923Z,72.90
2023-05-15T15:33:09.714Z,73.50
2023-05-15T15:35:36.484Z,73.20
2023-05-15T15:38:03.564Z,73.40
2023-05-15T15:40:30.343Z,72.70
2023-05-15T15:42:57.093Z,72.50
2023-05-15T15:45:23.773Z,72.80
2023-05-15T15:47:50.551Z,72.90
2023-05-15T15:50:17.345Z,73.10
2023-05-15T15:52:44.065Z,73.00
2023-05-15T15:55:10.866Z,72.60
2023-05-15T15:57:37.912Z,72.80
2023-05-15T16:00:06.916Z,71.80
2023-05-15T16:02:33.882Z,69.50
2023-05-15T16:05:00.944Z,68.20
2023-05-15T16:07:27.793Z,67.40
2023-05-15T16:10:10.045Z,67.60
2023-05-15T16:12:38.998Z,67.60
2023-05-15T16:15:20.762Z,67.10
2023-05-15T16:17:51.403Z,67.30
2023-05-15T16:20:18.496Z,66.00
2023-05-15T16:22:45.289Z,64.80
2023-05-15T16:25:12.070Z,64.00
2023-05-15T16:27:38.838Z,62.60
2023-05-15T16:30:06.035Z,61.90
2023-05-15T16:32:34.114Z,62.40
2023-05-15T16:35:01.082Z,61.30
2023-05-15T16:37:28.056Z,61.80
2023-05-15T16:39:54.727Z,60.80
2023-05-15T16:42:21.441Z,60.40
2023-05-15T16:44:48.302Z,61.90
2023-05-15T16:47:15.203Z,62.50
2023-05-15T16:49:44.265Z,63.10
2023-05-15T16:52:12.037Z,63.20
2023-05-15T16:54:41.555Z,63.60
2023-05-15T16:57:08.371Z,65.10
2023-05-15T16:59:35.255Z,64.30
2023-05-15T17:02:02.058Z,64.30
2023-05-15T17:04:33.009Z,64.90
2023-05-15T17:06:59.981Z,65.40
2023-05-15T17:09:26.780Z,65.20
2023-05-15T17:11:53.539Z,66.00
2023-05-15T17:14:20.204Z,65.80
2023-05-15T17:16:47.117Z,66.50
2023-05-15T17:19:14.231Z,66.70
2023-05-15T17:21:41.015Z,66.70
2023-05-15T17:24:07.935Z,66.20
2023-05-15T17:26:34.727Z,65.60
2023-05-15T17:29:01.531Z,62.60
2023-05-15T17:31:29.512Z,63.40
2023-05-15T17:33:56.577Z,64.30
2023-05-15T17:36:23.684Z,65.10
2023-05-15T17:38:52.352Z,66.50
2023-05-15T17:41:19.161Z,67.50
2023-05-15T17:43:46.025Z,67.90
2023-05-15T17:46:12.927Z,68.00
2023-05-15T17:48:39.930Z,68.70
2023-05-15T17:51:06.798Z,69.00
2023-05-15T17:53:33.665Z,69.20
2023-05-15T17:56:01.158Z,70.20
2023-05-15T17:58:28.167Z,70.70
2023-05-15T18:00:55.115Z,71.50
2023-05-15T18:03:22.171Z,72.20
2023-05-15T18:05:49.443Z,73.90
2023-05-15T18:08:17.509Z,74.50
2023-05-15T18:10:44.275Z,75.90
2023-05-15T18:13:11.122Z,77.30
2023-05-15T18:15:38.059Z,80.20
2023-05-15T18:18:05.798Z,80.90
2023-05-15T18:20:32.618Z,81.20
2023-05-15T18:22:59.512Z,81.90
2023-05-15T18:25:26.789Z,83.20
2023-05-15T18:27:54.105Z,85.90
2023-05-15T18:30:20.879Z,84.00
2023-05-15T18:32:47.688Z,84.10
2023-05-15T18:35:15.664Z,83.70
2023-05-15T18:37:42.631Z,84.50
2023-05-15T18:40:10.468Z,86.70
2023-05-15T18:42:37.265Z,86.60
2023-05-15T18:45:04.268Z,88.10
2023-05-15T18:47:31.266Z,86.10
2023-05-15T18:49:58.119Z,85.10
2023-05-15T18:52:26.567Z,84.50
2023-05-15T18:54:54.168Z,84.10
2023-05-15T18:57:21.078Z,83.40
2023-05-15T18:59:48.137Z,82.70
2023-05-15T19:02:15.011Z,82.70
2023-05-15T19:04:41.878Z,82.50
2023-05-15T19:07:08.753Z,83.00
2023-05-15T19:09:35.565Z,83.50
2023-05-15T19:12:03.466Z,85.70
2023-05-15T19:14:30.404Z,86.40
2023-05-15T19:16:58.261Z,85.80
2023-05-15T19:19:25.980Z,86.20
2023-05-15T19:21:53.167Z,85.40
2023-05-15T19:24:20.543Z,85.70
2023-05-15T19:26:47.432Z,85.60
2023-05-15T19:29:14.216Z,85.30
2023-05-15T19:31:41.329Z,85.60
2023-05-15T19:34:08.226Z,85.20
2023-05-15T19:36:35.212Z,85.40
2023-05-15T19:39:02.250Z,85.50
2023-05-15T19:41:29.068Z,84.80
2023-05-15T19:43:55.922Z,84.70
2023-05-15T19:46:22.825Z,84.50
2023-05-15T19:48:49.931Z,84.60
2023-05-15T19:51:16.734Z,85.00
2023-05-15T19:53:44.622Z,85.30
2023-05-15T19:56:13.789Z,85.00
2023-05-15T19:58:40.667Z,85.30
2023-05-15T20:01:07.856Z,84.40
2023-05-15T20:03:34.773Z,84.50
2023-05-15T20:06:02.492Z,84.40
2023-05-15T20:08:29.334Z,84.40
2023-05-15T20:10:56.322Z,84.50
2023-05-15T20:13:23.302Z,85.30
2023-05-15T20:15:57.178Z,84.60
2023-05-15T20:18:24.952Z,86.80
2023-05-15T20:20:54.418Z,87.80
2023-05-15T20:23:21.343Z,87.70
2023-05-15T20:25:49.408Z,87.30
2023-05-15T20:28:17.732Z,88.40
2023-05-15T20:30:47.226Z,88.70
2023-05-15T20:33:14.389Z,89.50
2023-05-15T21:14:55.291Z,87.40
2023-05-15T21:17:22.008Z,87.80
2023-05-15T21:19:48.806Z,87.80
2023-05-15T21:22:16.575Z,87.80
2023-05-15T21:24:43.302Z,87.40
2023-05-15T21:27:09.986Z,86.90
2023-05-15T21:29:36.793Z,87.40
2023-05-15T21:32:03.660Z,87.90
2023-05-15T21:34:30.363Z,87.70
2023-05-15T21:36:57.058Z,87.40
2023-05-15T21:39:23.711Z,87.00
2023-05-15T21:41:51.177Z,86.50
2023-05-15T21:44:18.211Z,86.30
2023-05-15T21:46:45.060Z,86.20
2023-05-15T21:49:12.298Z,85.90
2023-05-15T21:51:39.059Z,85.90
2023-05-15T21:54:05.901Z,85.70
2023-05-15T21:56:32.646Z,86.50
2023-05-15T21:58:59.398Z,85.70
2023-05-15T22:01:26.206Z,85.80
2023-05-15T22:03:52.945Z,86.00
2023-05-15T22:06:19.742Z,86.10
2023-05-15T22:08:46.401Z,86.20
2023-05-15T22:11:13.240Z,86.40
2023-05-15T22:13:39.939Z,86.50
2023-05-15T22:16:06.718Z,86.70
2023-05-15T22:18:34.829Z,87.00
2023-05-15T22:21:03.065Z,87.30
2023-05-15T22:23:29.807Z,87.60
2023-05-15T22:25:56.517Z,87.70
2023-05-15T22:28:23.252Z,87.90
2023-05-15T22:30:50.404Z,88.20
2023-05-15T22:33:17.111Z,88.30
2023-05-15T22:35:44.494Z,88.40
2023-05-15T22:38:11.173Z,88.50
2023-05-15T22:40:37.860Z,88.60
2023-05-15T22:43:04.674Z,88.80
2023-05-15T22:45:31.541Z,88.80
2023-05-15T22:47:58.393Z,88.90
2023-05-15T22:50:25.357Z,89.00
2023-05-15T22:52:52.214Z,89.00
2023-05-15T22:55:18.970Z,89.20
2023-05-15T22:57:45.750Z,89.20
2023-05-15T23:00:13.742Z,89.40
2023-05-15T23:02:42.668Z,89.50
2023-05-15T23:05:11.051Z,89.60
2023-05-15T23:07:37.828Z,89.70
2023-05-15T23:10:04.903Z,89.60
2023-05-15T23:12:31.686Z,89.70
2023-05-15T23:14:58.406Z,89.80
2023-05-15T23:17:26.514Z,89.80
2023-05-15T23:19:53.552Z,89.90
2023-05-15T23:22:20.208Z,89.70
2023-05-15T23:24:46.951Z,90.00
2023-05-15T23:27:13.637Z,89.80
2023-05-15T23:29:40.431Z,90.00
2023-05-15T23:32:07.573Z,90.00
2023-05-15T23:34:34.265Z,90.00
2023-05-15T23:37:00.952Z,90.40
2023-05-15T23:39:27.683Z,90.00
2023-05-15T23:41:54.437Z,90.10
2023-05-15T23:44:21.263Z,90.20
2023-05-15T23:46:48.210Z,90.20
2023-05-15T23:49:14.884Z,90.30
2023-05-15T23:51:41.594Z,90.30
2023-05-15T23:54:08.427Z,90.40
2023-05-15T23:56:35.088Z,90.80
2023-05-15T23:59:01.785Z,90.60
